Time,TemperatureF,DewpointF,PressureIn,WindDirection,WindDirectionDegrees,WindSpeedMPH,WindSpeedGustMPH,Humidity,HourlyPrecipIn,Conditions,Clouds,dailyrainin,SoftwareType,DateUTC
2013-06-13 00:00:00,66.1,62.1,29.89,West,278,0.0,0.0,87,0.00,CLR,,0.00,WeatherDisplay:10.37,2013-06-13 04:00:00,
2013-06-13 00:15:00,65.8,61.8,29.89,West,278,0.0,0.0,87,0.00,CLR,,0.00,WeatherDisplay:10.37,2013-06-13 04:15:00,
2013-06-13 00:30:00,65.4,61.4,29.89,West,278,0.0,1.0,87,0.00,CLR,,0.00,WeatherDisplay:10.37,2013-06-13 04:30:00,
2013-06-13 00:45:00,65.0,61.4,29.88,West,278,0.0,0.0,88,0.00,CLR,,0.00,WeatherDisplay:10.37,2013-06-13 04:45:00,
2013-06-13 01:00:00,64.7,61.1,29.88,West,278,0.0,2.0,88,0.00,CLR,,0.00,WeatherDisplay:10.37,2013-06-13 05:00:00,
2013-06-13 01:15:00,64.5,60.9,29.87,West,277,0.0,1.0,88,0.00,CLR,,0.00,WeatherDisplay:10.37,2013-06-13 05:15:00,
2013-06-13 01:30:00,64.4,60.8,29.87,West,278,0.0,1.0,88,0.00,CLR,,0.00,WeatherDisplay:10.37,2013-06-13 05:30:00,
2013-06-13 01:45:00,64.2,60.6,29.87,West,278,0.0,1.0,88,0.00,CLR,,0.00,WeatherDisplay:10.37,2013-06-13 05:45:00,
2013-06-13 02:00:00,64.1,60.5,29.87,West,278,0.0,0.0,88,0.00,CLR,,0.00,WeatherDisplay:10.37,2013-06-13 06:00:00,
2013-06-13 02:15:00,63.9,60.3,29.87,West,278,0.0,2.0,88,0.00,CLR,,0.00,WeatherDisplay:10.37,2013-06-13 06:15:00,
2013-06-13 02:30:00,63.7,60.1,29.87,West,278,0.0,0.0,88,0.00,CLR,,0.00,WeatherDisplay:10.37,2013-06-13 06:30:00,
2013-06-13 02:45:00,63.6,60.0,29.87,West,278,0.0,1.0,88,0.00,CLR,,0.00,WeatherDisplay:10.37,2013-06-13 06:45:00,
2013-06-13 03:00:00,63.5,59.9,29.88,West,278,0.0,0.0,88,0.00,CLR,,0.00,WeatherDisplay:10.37,2013-06-13 07:00:00,
2013-06-13 03:15:00,63.5,59.9,29.88,West,278,0.0,1.0,88,0.00,CLR,,0.00,WeatherDisplay:10.37,2013-06-13 07:15:00,
2013-06-13 03:30:00,63.5,59.9,29.87,West,278,0.0,0.0,88,0.00,CLR,,0.00,WeatherDisplay:10.37,2013-06-13 07:30:00,
2013-06-13 03:45:00,63.3,59.7,29.88,West,278,0.0,0.0,88,0.00,CLR,,0.00,WeatherDisplay:10.37,2013-06-13 07:45:00,
2013-06-13 04:00:00,63.2,59.9,29.87,West,278,0.0,0.0,89,0.00,CLR,,0.00,WeatherDisplay:10.37,2013-06-13 08:00:00,
2013-06-13 04:15:00,63.1,59.8,29.86,West,278,0.0,0.0,89,0.00,CLR,,0.00,WeatherDisplay:10.37,2013-06-13 08:15:00,
2013-06-13 04:30:00,63.0,59.7,29.85,West,278,0.0,2.0,89,0.00,CLR,,0.00,WeatherDisplay:10.37,2013-06-13 08:30:00,
2013-06-13 04:45:00,62.9,59.3,29.86,West,278,0.0,1.0,88,0.00,CLR,,0.00,WeatherDisplay:10.37,2013-06-13 08:45:00,
2013-06-13 05:00:00,62.5,59.2,29.85,West,278,0.0,0.0,89,0.00,CLR,,0.00,WeatherDisplay:10.37,2013-06-13 09:00:00,
2013-06-13 05:15:00,62.3,59.0,29.85,West,278,0.0,0.0,89,0.00,CLR,,0.00,WeatherDisplay:10.37,2013-06-13 09:15:00,
2013-06-13 05:30:00,62.1,58.8,29.85,West,278,0.0,0.0,89,0.00,CLR,,0.00,WeatherDisplay:10.37,2013-06-13 09:30:00,
2013-06-13 05:45:00,62.2,58.9,29.85,West,278,0.0,2.0,89,0.00,CLR,,0.00,WeatherDisplay:10.37,2013-06-13 09:45:00,
2013-06-13 06:00:00,62.1,58.8,29.84,West,278,0.0,1.0,89,0.00,CLR,,0.00,WeatherDisplay:10.37,2013-06-13 10:00:00,
2013-06-13 06:15:00,62.4,59.1,29.84,West,278,0.0,3.0,89,0.00,CLR,,0.00,WeatherDisplay:10.37,2013-06-13 10:15:00,
2013-06-13 06:30:00,62.6,59.3,29.84,West,278,0.0,1.0,89,0.00,CLR,,0.00,WeatherDisplay:10.37,2013-06-13 10:30:00,
2013-06-13 06:45:00,62.8,59.5,29.84,West,278,0.0,2.0,89,0.00,CLR,,0.00,WeatherDisplay:10.37,2013-06-13 10:45:00,
2013-06-13 07:00:00,63.3,60.0,29.83,West,278,0.0,1.0,89,0.00,CLR,,0.00,WeatherDisplay:10.37,2013-06-13 11:00:00,
2013-06-13 07:15:00,64.2,61.2,29.83,West,278,0.0,0.0,90,0.00,CLR,,0.00,WeatherDisplay:10.37,2013-06-13 11:15:00,
2013-06-13 07:30:00,65.1,62.1,29.83,West,278,0.0,1.0,90,0.00,CLR,,0.00,WeatherDisplay:10.37,2013-06-13 11:30:00,
2013-06-13 07:45:00,66.0,63.0,29.82,West,277,0.0,0.0,90,0.00,CLR,,0.00,WeatherDisplay:10.37,2013-06-13 11:45:00,
2013-06-13 08:00:00,67.3,64.2,29.82,West,278,0.0,0.0,90,0.00,CLR,,0.00,WeatherDisplay:10.37,2013-06-13 12:00:00,
2013-06-13 08:15:00,68.1,65.1,29.82,NE,34,0.0,2.0,90,0.00,CLR,,0.00,WeatherDisplay:10.37,2013-06-13 12:15:00,
2013-06-13 08:30:00,68.9,65.8,29.81,NE,34,0.0,0.0,90,0.00,CLR,,0.00,WeatherDisplay:10.37,2013-06-13 12:30:00,
2013-06-13 08:45:00,70.3,66.9,29.82,NE,34,0.0,0.0,89,0.00,CLR,,0.00,WeatherDisplay:10.37,2013-06-13 12:45:00,
2013-06-13 09:00:00,72.2,68.1,29.81,NE,39,0.0,0.0,87,0.00,CLR,,0.00,WeatherDisplay:10.37,2013-06-13 13:00:00,
2013-06-13 09:15:00,74.1,69.0,29.80,East,97,0.0,9.0,84,0.00,CLR,,0.00,WeatherDisplay:10.37,2013-06-13 13:15:00,
2013-06-13 09:30:00,76.4,70.1,29.80,NE,50,0.0,4.0,81,0.00,CLR,,0.00,WeatherDisplay:10.37,2013-06-13 13:30:00,
2013-06-13 09:45:00,78.7,68.9,29.79,SE,142,0.0,3.0,72,0.00,CLR,,0.00,WeatherDisplay:10.37,2013-06-13 13:45:00,
2013-06-13 10:00:00,79.9,67.1,29.78,SSE,158,1.0,9.0,65,0.00,CLR,,0.00,WeatherDisplay:10.37,2013-06-13 14:00:00,
2013-06-13 10:15:00,80.5,68.1,29.77,ENE,57,3.0,12.0,66,0.00,CLR,,0.00,WeatherDisplay:10.37,2013-06-13 14:15:00,
2013-06-13 10:30:00,81.1,66.8,29.77,East,96,0.0,5.0,62,0.00,CLR,,0.00,WeatherDisplay:10.37,2013-06-13 14:30:00,
2013-06-13 10:45:00,81.6,68.2,29.76,East,88,5.0,7.0,64,0.00,CLR,,0.00,WeatherDisplay:10.37,2013-06-13 14:45:00,
2013-06-13 11:00:00,81.5,66.3,29.76,ESE,110,2.0,12.0,60,0.00,CLR,,0.00,WeatherDisplay:10.37,2013-06-13 15:00:00,
2013-06-13 11:15:00,81.5,66.3,29.76,East,93,3.0,13.0,60,0.00,CLR,,0.00,WeatherDisplay:10.37,2013-06-13 15:15:00,
2013-06-13 11:30:00,82.0,65.8,29.76,ESE,118,5.0,17.0,58,0.00,CLR,,0.00,WeatherDisplay:10.37,2013-06-13 15:30:00,
2013-06-13 11:45:00,82.7,66.9,29.75,East,101,2.0,9.0,59,0.00,CLR,,0.00,WeatherDisplay:10.37,2013-06-13 15:45:00,
2013-06-13 12:00:00,83.1,65.7,29.74,ENE,72,2.0,16.0,56,0.00,CLR,,0.00,WeatherDisplay:10.37,2013-06-13 16:00:00,
2013-06-13 12:15:00,83.2,66.9,29.74,East,90,7.0,16.0,58,0.00,CLR,,0.00,WeatherDisplay:10.37,2013-06-13 16:15:00,
2013-06-13 12:30:00,83.1,66.3,29.73,East,96,8.0,12.0,57,0.00,CLR,,0.00,WeatherDisplay:10.37,2013-06-13 16:30:00,
2013-06-13 12:45:00,83.1,66.3,29.71,SE,136,3.0,15.0,57,0.00,CLR,,0.00,WeatherDisplay:10.37,2013-06-13 16:45:00,
2013-06-13 13:00:00,83.8,67.0,29.71,East,97,1.0,12.0,57,0.00,CLR,,0.00,WeatherDisplay:10.37,2013-06-13 17:00:00,
2013-06-13 13:15:00,84.7,65.7,29.70,East,81,5.0,12.0,53,0.00,CLR,,0.00,WeatherDisplay:10.37,2013-06-13 17:15:00,
2013-06-13 13:30:00,84.5,67.1,29.71,ESE,112,2.0,13.0,56,0.00,CLR,,0.00,WeatherDisplay:10.37,2013-06-13 17:30:00,
2013-06-13 13:45:00,83.8,67.4,29.70,ENE,64,6.0,13.0,58,0.00,CLR,,0.00,WeatherDisplay:10.37,2013-06-13 17:45:00,
2013-06-13 14:00:00,83.6,67.8,29.70,South,178,1.0,12.0,59,0.00,CLR,,0.00,WeatherDisplay:10.37,2013-06-13 18:00:00,
2013-06-13 14:15:00,84.0,70.1,29.69,East,99,2.0,15.0,63,0.00,CLR,,0.00,WeatherDisplay:10.37,2013-06-13 18:15:00,
2013-06-13 14:30:00,85.3,69.4,29.69,ESE,102,2.0,9.0,59,0.00,CLR,,0.00,WeatherDisplay:10.37,2013-06-13 18:30:00,
2013-06-13 14:45:00,85.0,70.6,29.68,ENE,73,3.0,12.0,62,0.00,CLR,,0.00,WeatherDisplay:10.37,2013-06-13 18:45:00,
2013-06-13 15:00:00,82.9,69.4,29.67,NNW,343,0.0,12.0,64,0.00,CLR,,0.00,WeatherDisplay:10.37,2013-06-13 19:00:00,
2013-06-13 15:15:00,81.2,69.2,29.68,ENE,74,0.0,4.0,67,0.00,CLR,,0.00,WeatherDisplay:10.37,2013-06-13 19:15:00,
2013-06-13 15:30:00,80.4,71.3,29.67,ENE,74,1.0,4.0,74,0.00,CLR,,0.00,WeatherDisplay:10.37,2013-06-13 19:30:00,
2013-06-13 15:45:00,78.4,71.0,29.67,WSW,256,1.0,6.0,78,0.00,CLR,,0.00,WeatherDisplay:10.37,2013-06-13 19:45:00,
2013-06-13 16:00:00,78.3,71.6,29.65,SSE,163,0.0,3.0,80,0.00,CLR,,0.00,WeatherDisplay:10.37,2013-06-13 20:00:00,
2013-06-13 16:15:00,81.8,70.2,29.65,ENE,75,0.0,3.0,68,0.00,CLR,,0.00,WeatherDisplay:10.37,2013-06-13 20:15:00,
2013-06-13 16:30:00,82.4,71.2,29.64,SE,127,2.0,7.0,69,0.00,CLR,,0.00,WeatherDisplay:10.37,2013-06-13 20:30:00,
2013-06-13 16:45:00,81.0,71.5,29.64,WNW,288,2.0,7.0,73,0.00,FEW,,0.00,WeatherDisplay:10.37,2013-06-13 20:45:00,
2013-06-13 17:00:00,78.9,71.4,29.66,SSE,148,0.0,3.0,78,0.00,FEW,,0.00,WeatherDisplay:10.37,2013-06-13 21:00:00,
2013-06-13 18:15:00,73.4,67.9,29.70,North,5,2.0,0.0,83,0.00,FEW,,0.00,WeatherDisplay:10.37,2013-06-13 22:15:00,
2013-06-13 18:30:00,68.7,64.7,29.71,ESE,117,0.0,0.0,87,0.00,FEW,,0.00,WeatherDisplay:10.37,2013-06-13 22:30:00,
2013-06-13 18:45:00,68.4,64.4,29.70,ESE,117,0.0,2.0,87,0.00,BKN,,0.00,WeatherDisplay:10.37,2013-06-13 22:45:00,
2013-06-13 19:00:00,68.1,64.1,29.70,ESE,117,0.0,1.0,87,0.00,BKN,,0.00,WeatherDisplay:10.37,2013-06-13 23:00:00,
2013-06-13 19:15:00,68.0,64.3,29.70,ESE,117,0.0,0.0,88,0.00,BKN,,0.00,WeatherDisplay:10.37,2013-06-13 23:15:00,
2013-06-13 19:30:00,68.1,64.4,29.70,ESE,117,0.0,1.0,88,0.00,BKN,,0.00,WeatherDisplay:10.37,2013-06-13 23:30:00,
2013-06-13 19:45:00,68.2,64.5,29.70,ESE,117,0.0,0.0,88,0.00,CLR,,0.00,WeatherDisplay:10.37,2013-06-13 23:45:00,
2013-06-13 20:00:00,68.3,64.6,29.69,ESE,117,0.0,1.0,88,0.00,CLR,,0.00,WeatherDisplay:10.37,2013-06-14 00:00:00,
2013-06-13 20:15:00,68.2,64.5,29.70,ESE,117,0.0,1.0,88,0.00,CLR,,0.00,WeatherDisplay:10.37,2013-06-14 00:15:00,
2013-06-13 20:30:00,67.9,64.2,29.70,ESE,117,0.0,2.0,88,0.00,CLR,,0.00,WeatherDisplay:10.37,2013-06-14 00:30:00,
2013-06-13 20:45:00,67.4,63.7,29.69,ESE,117,0.0,1.0,88,0.00,FEW,,0.00,WeatherDisplay:10.37,2013-06-14 00:45:00,
2013-06-13 21:00:00,66.8,63.2,29.69,ESE,117,0.0,1.0,88,0.00,FEW,,0.00,WeatherDisplay:10.37,2013-06-14 01:00:00,
2013-06-13 21:15:00,66.3,62.6,29.71,ESE,117,0.0,1.0,88,0.00,FEW,,0.00,WeatherDisplay:10.37,2013-06-14 01:15:00,
2013-06-13 21:30:00,65.9,62.2,29.71,ESE,117,0.0,1.0,88,0.00,FEW,,0.00,WeatherDisplay:10.37,2013-06-14 01:30:00,
2013-06-13 21:45:00,65.4,61.8,29.72,ESE,117,0.0,1.0,88,0.00,OVC,,0.00,WeatherDisplay:10.37,2013-06-14 01:45:00,
2013-06-13 22:00:00,64.9,61.3,29.72,ESE,117,1.0,2.0,88,0.00,OVC,,0.00,WeatherDisplay:10.37,2013-06-14 02:00:00,
2013-06-13 22:15:00,64.5,60.8,29.72,ESE,118,0.0,2.0,88,0.00,OVC,,0.00,WeatherDisplay:10.37,2013-06-14 02:15:00,
2013-06-13 22:30:00,64.0,60.4,29.73,ESE,118,0.0,2.0,88,0.00,OVC,,0.00,WeatherDisplay:10.37,2013-06-14 02:30:00,
2013-06-13 22:45:00,63.6,60.0,29.74,ESE,118,0.0,0.0,88,0.00,FEW,,0.00,WeatherDisplay:10.37,2013-06-14 02:45:00,
2013-06-13 23:00:00,63.2,59.6,29.74,ESE,118,0.0,3.0,88,0.00,FEW,,0.00,WeatherDisplay:10.37,2013-06-14 03:00:00,
2013-06-13 23:15:00,63.0,59.4,29.74,ESE,118,0.0,2.0,88,0.00,FEW,,0.00,WeatherDisplay:10.37,2013-06-14 03:15:00,
2013-06-13 23:30:00,62.6,59.0,29.75,ESE,118,0.0,1.0,88,0.00,FEW,,0.00,WeatherDisplay:10.37,2013-06-14 03:30:00,
2013-06-13 23:45:00,62.4,58.8,29.75,ESE,118,0.0,1.0,88,0.00,OVC,,0.00,WeatherDisplay:10.37,2013-06-14 03:45:00,